Home > Products > Valid Products > MTR

000
SAUS46 KPDT 012200
MTRMEH
METAR KMEH 012156Z AUTO VRB05KT 10SM CLR 34/M02 A3006 RMK AO2 SLP146
T03391017





000
SAUS46 KPDT 012057
MTRMEH
METAR KMEH 012056Z AUTO VRB04KT 10SM CLR 34/M02 A3007 RMK AO2 SLP150
T03391017 58008





000
SAUS46 KPDT 012057
MTRMEH
METAR KMEH 012056Z AUTO VRB04KT 10SM CLR 34/M02 A3007 RMK AO2 SLP150
T03391017 58008





000
SAUS46 KPDT 011959
MTRMEH
METAR KMEH 011956Z AUTO 10SM CLR 33/M04 A3008 RMK AO2 SLP151
T03331039





000
SAUS46 KPDT 011858
MTRMEH
METAR KMEH 011856Z AUTO 00000KT 10SM CLR 33/M03 A3009 RMK AO2 SLP154
T03281028





000
SAUS46 KPDT 011858
MTRMEH
METAR KMEH 011856Z AUTO 00000KT 10SM CLR 33/M03 A3009 RMK AO2 SLP154
T03281028





000
SAUS46 KPDT 011758
MTRMEH
METAR KMEH 011756Z AUTO VRB03KT 10SM CLR 32/M03 A3010 RMK AO2 SLP157
T03171028 10317 20072 56005





000
SAUS46 KPDT 011657
MTRMEH
METAR KMEH 011656Z AUTO VRB03KT 10SM CLR 29/01 A3010 RMK AO2 SLP155
T02940011





000
SAUS46 KPDT 011558
MTRMEH
METAR KMEH 011556Z AUTO 00000KT 10SM CLR 26/06 A3011 RMK AO2 SLP159
T02560056





000
SAUS46 KPDT 011500
MTRMEH
METAR KMEH 011456Z AUTO 00000KT 10SM CLR 17/06 A3011 RMK AO2 SLP166
T01670061 51006





000
SAUS46 KPDT 011359
MTRMEH
METAR KMEH 011356Z AUTO 00000KT 10SM CLR 10/04 A3011 RMK AO2 SLP168
T01000039





000
SAUS46 KPDT 011359
MTRMEH
METAR KMEH 011356Z AUTO 00000KT 10SM CLR 10/04 A3011 RMK AO2 SLP168
T01000039





000
SAUS46 KPDT 011259
MTRMEH
METAR KMEH 011256Z AUTO 00000KT 10SM CLR 08/03 A3010 RMK AO2 SLP164
T00780033





000
SAUS46 KPDT 011157
MTRMEH
METAR KMEH 011156Z AUTO 00000KT 10SM CLR 08/03 A3009 RMK AO2 SLP160
T00830033 10161 20083 56003





000
SAUS46 KPDT 011157
MTRMEH
METAR KMEH 011156Z AUTO 00000KT 10SM CLR 08/03 A3009 RMK AO2 SLP160
T00830033 10161 20083 56003





000
SAUS46 KPDT 011057
MTRMEH
METAR KMEH 011056Z AUTO 00000KT 10SM CLR 09/04 A3010 RMK AO2 SLP161
T00890039





000
SAUS46 KPDT 011057
MTRMEH
METAR KMEH 011056Z AUTO 00000KT 10SM CLR 09/04 A3010 RMK AO2 SLP161
T00890039





000
SAUS46 KPDT 010958
MTRMEH
METAR KMEH 010956Z AUTO 00000KT 10SM CLR 11/04 A3010 RMK AO2 SLP160
T01060039





000
SAUS46 KPDT 010958
MTRMEH
METAR KMEH 010956Z AUTO 00000KT 10SM CLR 11/04 A3010 RMK AO2 SLP160
T01060039





000
SAUS46 KPDT 010857
MTRMEH
METAR KMEH 010856Z AUTO 00000KT 10SM CLR 12/04 A3010 RMK AO2 SLP160
T01170044 58004





000
SAUS46 KPDT 010759
MTRMEH
METAR KMEH 010756Z AUTO 00000KT 10SM CLR 13/04 A3011 RMK AO2 SLP161
T01280044 403560072





000
SAUS46 KPDT 010759
MTRMEH
METAR KMEH 010756Z AUTO 00000KT 10SM CLR 13/04 A3011 RMK AO2 SLP161
T01280044 403560072





000
SAUS46 KPDT 010658
MTRMEH
METAR KMEH 010656Z AUTO 00000KT 10SM CLR 14/05 A3011 RMK AO2 SLP163
T01440050





000
SAUS46 KPDT 010558
MTRMEH
METAR KMEH 010556Z AUTO 00000KT 10SM CLR 16/05 A3012 RMK AO2 SLP163
T01610050 10344 20161 50000





000
SAUS46 KPDT 010558
MTRMEH
METAR KMEH 010556Z AUTO 00000KT 10SM CLR 16/05 A3012 RMK AO2 SLP163
T01610050 10344 20161 50000





000
SAUS46 KPDT 010458
MTRMEH
METAR KMEH 010456Z AUTO 00000KT 10SM CLR 19/06 A3012 RMK AO2 SLP163
T01890056





000
SAUS46 KPDT 010458
MTRMEH
METAR KMEH 010456Z AUTO 00000KT 10SM CLR 19/06 A3012 RMK AO2 SLP163
T01890056





000
SAUS46 KPDT 010359
MTRMEH
METAR KMEH 010356Z AUTO 00000KT 10SM CLR 23/06 A3012 RMK AO2 SLP164
T02280056





000
SAUS46 KPDT 010258
MTRMEH
METAR KMEH 010256Z AUTO 00000KT 10SM CLR 27/03 A3011 RMK AO2 SLP167
T02720028 55004





000
SAUS46 KPDT 010258
MTRMEH
METAR KMEH 010256Z AUTO 00000KT 10SM CLR 27/03 A3011 RMK AO2 SLP167
T02720028 55004





000
SAUS46 KPDT 010158
MTRMEH
METAR KMEH 010156Z AUTO 00000KT 10SM CLR 32/01 A3010 RMK AO2 SLP167
T03170006





000
SAUS46 KPDT 010058
MTRMEH
METAR KMEH 010056Z AUTO VRB05KT 10SM CLR 33/01 A3011 RMK AO2 SLP170
T03330006





000
SAUS46 KPDT 312358
MTRMEH
METAR KMEH 312356Z AUTO VRB05KT 10SM CLR 34/00 A3013 RMK AO2 SLP172
T03440000 10356 20317 56013





000
SAUS46 KPDT 312358
MTRMEH
METAR KMEH 312356Z AUTO VRB05KT 10SM CLR 34/00 A3013 RMK AO2 SLP172
T03440000 10356 20317 56013





000
SAUS46 KPDT 312258
MTRMEH
METAR KMEH 312256Z AUTO VRB05KT 10SM CLR 34/M01 A3014 RMK AO2 SLP175
T03441006





000
SAUS46 KPDT 312157
MTRMEH
METAR KMEH 312156Z AUTO VRB05KT 10SM CLR 35/M01 A3015 RMK AO2 SLP180
T03501006





000
SAUS46 KPDT 312057
MTRMEH
METAR KMEH 312056Z AUTO 00000KT 10SM CLR 35/01 A3017 RMK AO2 SLP185
T03500006 56011





000
SAUS46 KPDT 311957
MTRMEH
METAR KMEH 311956Z AUTO VRB03KT 10SM CLR 35/00 A3018 RMK AO2 SLP185
T03500000





000
SAUS46 KPDT 311857
MTRMEH
METAR KMEH 311856Z AUTO VRB03KT 10SM CLR 33/01 A3019 RMK AO2 SLP193
T03330006





000
SAUS46 KPDT 311857
MTRMEH
METAR KMEH 311856Z AUTO VRB03KT 10SM CLR 33/01 A3019 RMK AO2 SLP193
T03330006





000
SAUS46 KPDT 311758
MTRMEH
METAR KMEH 311756Z AUTO VRB03KT 10SM CLR 32/01 A3021 RMK AO2 SLP196
T03170006 10317 20072 56003





000
SAUS46 KPDT 311658
MTRMEH
METAR KMEH 311656Z AUTO 00000KT 10SM CLR 29/04 A3021 RMK AO2 SLP196
T02940044





000
SAUS46 KPDT 311557
MTRMEH
METAR KMEH 311556Z AUTO 00000KT 10SM CLR 25/07 A3021 RMK AO2 SLP199
T02500072





000
SAUS46 KPDT 311457
MTRMEH
METAR KMEH 311456Z AUTO 00000KT 10SM CLR 16/06 A3022 RMK AO2 SLP204
T01560061 51002





000
SAUS46 KPDT 311457
MTRMEH
METAR KMEH 311456Z AUTO 00000KT 10SM CLR 16/06 A3022 RMK AO2 SLP204
T01560061 51002





000
SAUS46 KPDT 311358
MTRMEH
METAR KMEH 311356Z AUTO 00000KT 10SM CLR 09/03 A3021 RMK AO2 SLP206
T00940033





000
SAUS46 KPDT 311258
MTRMEH
METAR KMEH 311256Z AUTO 00000KT 10SM CLR 07/03 A3021 RMK AO2 SLP206
T00720028





000
SAUS46 KPDT 311158
MTRMEH
METAR KMEH 311156Z AUTO 00000KT 10SM CLR 08/03 A3021 RMK AO2 SLP202
T00830033 10144 20083 51002





000
SAUS46 KPDT 311158
MTRMEH
METAR KMEH 311156Z AUTO 00000KT 10SM CLR 08/03 A3021 RMK AO2 SLP202
T00830033 10144 20083 51002





000
SAUS46 KPDT 311058
MTRMEH
METAR KMEH 311056Z AUTO 00000KT 10SM CLR 09/03 A3021 RMK AO2 SLP201
T00890033





000
SAUS46 KPDT 310959
MTRMEH
METAR KMEH 310956Z AUTO 00000KT 10SM CLR 09/04 A3021 RMK AO2 SLP201
T00940039





000
SAUS46 KPDT 310857
MTRMEH
METAR KMEH 310856Z AUTO 00000KT 10SM CLR 10/04 A3020 RMK AO2 SLP198
T01000039 58002





000
SAUS46 KPDT 310758
MTRMEH
METAR KMEH 310756Z AUTO 00000KT 10SM CLR 11/04 A3021 RMK AO2 SLP201
T01110039 403390044





000
SAUS46 KPDT 310758
MTRMEH
METAR KMEH 310756Z AUTO 00000KT 10SM CLR 11/04 A3021 RMK AO2 SLP201
T01110039 403390044





000
SAUS46 KPDT 310658
MTRMEH
METAR KMEH 310656Z AUTO 00000KT 10SM CLR 12/05 A3021 RMK AO2 SLP200
T01220050





000
SAUS46 KPDT 310658
MTRMEH
METAR KMEH 310656Z AUTO 00000KT 10SM CLR 12/05 A3021 RMK AO2 SLP200
T01220050





000
SAUS46 KPDT 310559
MTRMEH
METAR KMEH 310556Z AUTO 00000KT 10SM CLR 14/05 A3021 RMK AO2 SLP200
T01440050 10333 20144 51009





000
SAUS46 KPDT 310559
MTRMEH
METAR KMEH 310556Z AUTO 00000KT 10SM CLR 14/05 A3021 RMK AO2 SLP200
T01440050 10333 20144 51009





000
SAUS46 KPDT 310457
MTRMEH
METAR KMEH 310456Z AUTO 00000KT 10SM CLR 17/06 A3021 RMK AO2 SLP197
T01720056





000
SAUS46 KPDT 310401
MTRMEH
METAR KMEH 310356Z AUTO 00000KT 10SM CLR 21/04 A3019 RMK AO2 SLP192
T02060044





000
SAUS46 KPDT 310401
MTRMEH
METAR KMEH 310356Z AUTO 00000KT 10SM CLR 21/04 A3019 RMK AO2 SLP192
T02060044





000
SAUS46 KPDT 310257
MTRMEH
METAR KMEH 310256Z AUTO 00000KT 10SM CLR 26/02 A3018 RMK AO2 SLP192
T02610017 55003





000
SAUS46 KPDT 310159
MTRMEH
METAR KMEH 310156Z AUTO VRB03KT 10SM CLR 31/01 A3018 RMK AO2 SLP194
T03060006





000
SAUS46 KPDT 310159
MTRMEH
METAR KMEH 310156Z AUTO VRB03KT 10SM CLR 31/01 A3018 RMK AO2 SLP194
T03060006





000
SAUS46 KPDT 310100
MTRMEH
METAR KMEH 310056Z AUTO VRB04KT 10SM CLR 32/00 A3018 RMK AO2 SLP198
T03220000





000
SAUS46 KPDT 302357
MTRMEH
METAR KMEH 302356Z AUTO VRB04KT 10SM CLR 33/M01 A3019 RMK AO2 SLP199
T03331006 10339 20294 56010





000
SAUS46 KPDT 302357
MTRMEH
METAR KMEH 302356Z AUTO VRB04KT 10SM CLR 33/M01 A3019 RMK AO2 SLP199
T03331006 10339 20294 56010





000
SAUS46 KPDT 302258
MTRMEH
METAR KMEH 302256Z AUTO VRB05KT 10SM CLR 33/M02 A3019 RMK AO2 SLP201
T03331022





000
SAUS46 KPDT 302258
MTRMEH
METAR KMEH 302256Z AUTO VRB05KT 10SM CLR 33/M02 A3019 RMK AO2 SLP201
T03331022





000
SAUS46 KPDT 302200
MTRMEH
METAR KMEH 302156Z AUTO VRB05KT 10SM CLR 33/M02 A3021 RMK AO2 SLP205
T03281017





000
SAUS46 KPDT 302058
MTRMEH
METAR KMEH 302056Z AUTO VRB04G14KT 10SM CLR 33/M02 A3022 RMK AO2
SLP208 T03281017 58007





000
SAUS46 KPDT 302000
MTRMEH
METAR KMEH 301956Z AUTO VRB03KT 10SM CLR 32/M01 A3024 RMK AO2 SLP212
T03221011





000
SAUS46 KPDT 301900
MTRMEH
METAR KMEH 301856Z AUTO 00000KT 10SM CLR 32/00 A3024 RMK AO2 SLP214
T03170000





000
SAUS46 KPDT 301900
MTRMEH
METAR KMEH 301856Z AUTO 00000KT 10SM CLR 32/00 A3024 RMK AO2 SLP214
T03170000





000
SAUS46 KPDT 301800
MTRMEH
METAR KMEH 301756Z AUTO 00000KT 10SM CLR 30/03 A3025 RMK AO2 SLP216
T03000028 10300 20044 58001





000
SAUS46 KPDT 301658
MTRMEH
METAR KMEH 301656Z AUTO 09004KT 10SM CLR 28/04 A3025 RMK AO2 SLP215
T02780039





000
SAUS46 KPDT 301658
MTRMEH
METAR KMEH 301656Z AUTO 09004KT 10SM CLR 28/04 A3025 RMK AO2 SLP215
T02780039





000
SAUS46 KPDT 301558
MTRMEH
METAR KMEH 301556Z AUTO 00000KT 10SM CLR 25/06 A3026 RMK AO2 SLP216
T02500056





000
SAUS46 KPDT 301558
MTRMEH
METAR KMEH 301556Z AUTO 00000KT 10SM CLR 25/06 A3026 RMK AO2 SLP216
T02500056





000
SAUS46 KPDT 301457
MTRMEH
METAR KMEH 301456Z AUTO 00000KT 10SM CLR 16/06 A3025 RMK AO2 SLP221
T01610061 51007





000
SAUS46 KPDT 301457
MTRMEH
METAR KMEH 301456Z AUTO 00000KT 10SM CLR 16/06 A3025 RMK AO2 SLP221
T01610061 51007





000
SAUS46 KPDT 301358
MTRMEH
METAR KMEH 301356Z AUTO 00000KT 10SM CLR 08/03 A3025 RMK AO2 SLP223
T00830033





000
SAUS46 KPDT 301358
MTRMEH
METAR KMEH 301356Z AUTO 00000KT 10SM CLR 08/03 A3025 RMK AO2 SLP223
T00830033





000
SAUS46 KPDT 301259
MTRMEH
METAR KMEH 301256Z AUTO 00000KT 10SM CLR 05/02 A3024 RMK AO2 SLP223
T00500022





000
SAUS46 KPDT 301158
MTRMEH
METAR KMEH 301156Z AUTO 00000KT 10SM CLR 05/02 A3023 RMK AO2 SLP220
T00500022 10122 20050 55001





000
SAUS46 KPDT 301100
MTRMEH
METAR KMEH 301056Z AUTO 00000KT 10SM CLR 06/02 A3023 RMK AO2 SLP217
T00560022





000
SAUS46 KPDT 301100
MTRMEH
METAR KMEH 301056Z AUTO 00000KT 10SM CLR 06/02 A3023 RMK AO2 SLP217
T00560022





000
SAUS46 KPDT 300958
MTRMEH
METAR KMEH 300956Z AUTO 00000KT 10SM CLR 07/03 A3023 RMK AO2 SLP219
T00670028





000
SAUS46 KPDT 300900
MTRMEH
METAR KMEH 300856Z AUTO 00000KT 10SM CLR 08/03 A3023 RMK AO2 SLP218
T00780033 50000





000
SAUS46 KPDT 300900
MTRMEH
METAR KMEH 300856Z AUTO 00000KT 10SM CLR 08/03 A3023 RMK AO2 SLP218
T00780033 50000





000
SAUS46 KPDT 300757
MTRMEH
METAR KMEH 300756Z AUTO 00000KT 10SM CLR 09/04 A3024 RMK AO2 SLP219
T00890039 402940022





000
SAUS46 KPDT 300700
MTRMEH
METAR KMEH 300656Z AUTO 00000KT 10SM CLR 11/04 A3024 RMK AO2 SLP218
T01060039





000
SAUS46 KPDT 300700
MTRMEH
METAR KMEH 300656Z AUTO 00000KT 10SM CLR 11/04 A3024 RMK AO2 SLP218
T01060039





000
SAUS46 KPDT 300558
MTRMEH
METAR KMEH 300556Z AUTO 00000KT 10SM CLR 12/04 A3023 RMK AO2 SLP216
T01220044 10283 20122 50006





000
SAUS46 KPDT 300558
MTRMEH
METAR KMEH 300556Z AUTO 00000KT 10SM CLR 12/04 A3023 RMK AO2 SLP216
T01220044 10283 20122 50006





000
SAUS46 KPDT 300500
MTRMEH
METAR KMEH 300456Z AUTO 00000KT 10SM CLR 15/05 A3024 RMK AO2 SLP216
T01500050





000
SAUS46 KPDT 300500
MTRMEH
METAR KMEH 300456Z AUTO 00000KT 10SM CLR 15/05 A3024 RMK AO2 SLP216
T01500050





000
SAUS46 KPDT 300357
MTRMEH
METAR KMEH 300356Z AUTO 00000KT 10SM CLR 18/04 A3022 RMK AO2 SLP211
T01780039





000
SAUS46 KPDT 300300
MTRMEH
METAR KMEH 300256Z AUTO 00000KT 10SM CLR 22/02 A3021 RMK AO2 SLP211
T02220017 55001





000
SAUS46 KPDT 300157
MTRMEH
METAR KMEH 300156Z AUTO VRB03KT 10SM CLR 27/01 A3021 RMK AO2 SLP212
T02670006





000
SAUS46 KPDT 300100
MTRMEH
METAR KMEH 300056Z AUTO 05005KT 10SM CLR 28/00 A3021 RMK AO2 SLP214
T02780000





000
SAUS46 KPDT 300100
MTRMEH
METAR KMEH 300056Z AUTO 05005KT 10SM CLR 28/00 A3021 RMK AO2 SLP214
T02780000





000
SAUS46 KPDT 300000
MTRMEH
METAR KMEH 292356Z AUTO VRB05KT 10SM CLR 28/01 A3021 RMK AO2 SLP217
T02830006 10294 20239 58009





000
SAUS46 KPDT 292300
MTRMEH
METAR KMEH 292256Z AUTO VRB04KT 10SM CLR 28/02 A3022 RMK AO2 SLP219
T02830017





    US Dept of Commerce
    National Oceanic and Atmospheric Administration
    National Weather Service
    1325 East West Highway
    Silver Spring, MD 20910
    Page Author: NWS Internet Services Team
Disclaimer
Information Quality
Credits
Glossary
Privacy Policy
Freedom of Information Act (FOIA)
About Us
Career Opportunities